Wilmington, OH

1:39 PM EST on January 27, 2015 (GMT -0500)
Dayton-Wright Brothers | Change Station
CLOSE
Current Station
Airport
Location: Dayton Wright,
Elevation: 961 ft
Nearby Weather Stations

Elev 961 ft 39.59 °N, 84.22 °W | Updated 27 minutes ago

Overcast
Overcast
24 °F
Feels Like 15 °F
N
8
Wind Variable Wind from North

Today
High -- | Low -- °F
--% Chance of Precip.
Yesterday
High -- | Low -- °F
Precip. -- in
7:47 AM 5:49 PM
First Quarter, 56% visible
Pressure 30.07 in
Visibility 10.0 miles
Clouds Scattered Clouds 2400 ft
Windchill 15 °F
Dew Point 13 °F
Humidity 62%
Rainfall 0.00 in
Snow Depth Not available.
UV 3 out of 12
Pollen .10 out of 12
Air Quality Not available.
Flu Activity Not available.
SPECI KMGY 271812Z AUTO 36007KT 10SM SCT024 M04/M11 A3007 RMK AO2 T10441106

More Conditions Fewer Conditions

Pressure 30.07 in
Visibility 10.0 miles
Clouds Scattered Clouds 2400 ft
Windchill 15 °F
Dew Point 13 °F
Humidity 62%
Rainfall 0.00 in
Snow Depth Not available.
UV 3 out of 12
Pollen .10 out of 12
Air Quality Not available.
Flu Activity Not available.
SPECI KMGY 271812Z AUTO 36007KT 10SM SCT024 M04/M11 A3007 RMK AO2 T10441106

More Conditions Fewer Conditions

10-Day Weather Forecast

Almanac

Astronomy

Jan. 27, 2015 Rise Set
Actual Time
Civil Twilight
Nautical Twilight
Astronomical Twilight
Moon
Length of Visible Light
Length of Day
Tomorrow will be .
, % of the Moon is Illuminated

Today's Extremes

State Highs State Lows

Community

WunderPhotos

Upload Photos

1,790,757 photos uploaded!

WunderBlogs® & News

Nearby

Air Quality

  Air Quality AQ Index Pollutant
Not available.

Snow Depth

Station Depth Elevation

Earthquake Activity

City Distance Mag. Time & Date
Minimum magnitude displayed is 2.5.

Coastal Water Temperatures

Place Temperature

Nearby Weather Stations